Time;durP1;ratioP1;P1;durP2;ratioP2;P2;SDS_P1;SDS_P2;PMS_P1;PMS_P2;Temp;Humidity;BMP_temperature;BMP_pressure;BME280_temperature;BME280_humidity;BME280_pressure;Samples;Min_cycle;Max_cycle;Signal;HPM_P1;HPM_P2
2021/01/08 00:00:59;;;;;;;;;11.00;9.25;;;;;12.35;56.23;98082.25;5990194;22;102803;-95
2021/01/08 00:03:26;;;;;;;;;10.75;8.25;;;;;12.32;56.15;98075.41;6017606;22;102561;-95
2021/01/08 00:05:53;;;;;;;;;11.00;9.00;;;;;12.35;56.61;98087.69;6015112;22;103725;-95
2021/01/08 00:08:20;;;;;;;;;9.00;8.00;;;;;12.28;55.70;98082.34;6020167;22;112154;-95
2021/01/08 00:10:48;;;;;;;;;9.00;8.00;;;;;12.26;55.70;98078.19;6002563;22;102796;-95
2021/01/08 00:13:16;;;;;;;;;10.75;9.00;;;;;12.30;56.25;98074.81;6018221;22;102557;-95
2021/01/08 00:15:43;;;;;;;;;8.75;8.50;;;;;12.24;56.26;98078.44;5987777;22;103986;-95
2021/01/08 00:18:19;;;;;;;;;8.75;8.00;;;;;12.21;55.96;98070.72;6012510;22;104686;-95
2021/01/08 00:20:46;;;;;;;;;10.50;10.00;;;;;12.23;55.75;98075.94;6013528;22;102900;-95
2021/01/08 00:23:13;;;;;;;;;9.25;9.25;;;;;12.26;56.23;98078.19;5971394;22;102818;-95
2021/01/08 00:25:43;;;;;;;;;10.75;9.00;;;;;12.22;55.60;98066.97;6016193;22;104237;-95
2021/01/08 00:28:10;;;;;;;;;8.75;8.25;;;;;12.25;55.88;98077.34;6094420;22;104920;-94
2021/01/08 00:30:37;;;;;;;;;9.75;9.00;;;;;12.25;56.19;98082.78;6019893;22;102638;-95
2021/01/08 00:33:03;;;;;;;;;10.75;7.00;;;;;12.24;55.61;98078.44;6020019;22;102812;-95
2021/01/08 00:35:30;;;;;;;;;9.25;8.50;;;;;12.16;55.61;98067.84;6017088;22;104012;-95
2021/01/08 00:37:57;;;;;;;;;9.75;8.00;;;;;12.16;55.39;98075.97;6017391;22;102575;-95
2021/01/08 00:40:23;;;;;;;;;8.50;8.00;;;;;12.16;56.31;98078.69;6041635;22;102608;-95
2021/01/08 00:42:50;;;;;;;;;9.00;9.00;;;;;12.15;55.79;98076.22;6052666;22;103023;-95
2021/01/08 00:45:17;;;;;;;;;9.25;8.75;;;;;12.18;56.13;98073.91;6021150;22;108211;-95
2021/01/08 00:47:43;;;;;;;;;7.75;7.75;;;;;12.18;56.26;98073.91;6046586;22;102700;-95
2021/01/08 00:50:11;;;;;;;;;8.75;8.00;;;;;12.15;56.20;98068.94;6048958;22;102482;-95
2021/01/08 00:52:38;;;;;;;;;11.00;9.50;;;;;12.16;55.57;98078.69;6046468;22;102583;-95
2021/01/08 00:55:05;;;;;;;;;8.25;8.25;;;;;12.16;56.08;98067.06;6046843;22;103887;-95
2021/01/08 00:57:32;;;;;;;;;9.00;8.00;;;;;12.15;55.64;98070.81;6049808;22;102666;-95
2021/01/08 00:59:59;;;;;;;;;10.25;8.50;;;;;12.07;55.94;98067.31;5970709;22;102775;-95
2021/01/08 01:02:26;;;;;;;;;9.00;8.00;;;;;12.09;56.45;98072.53;6047750;22;102614;-95
2021/01/08 01:04:53;;;;;;;;;6.75;6.75;;;;;12.12;55.62;98071.22;6009455;22;104051;-95
2021/01/08 01:07:20;;;;;;;;;10.00;8.00;;;;;12.04;55.80;98070.47;6043975;22;102617;-95
2021/01/08 01:09:47;;;;;;;;;9.25;7.50;;;;;12.09;56.10;98067.09;6007524;22;102827;-95
2021/01/08 01:12:16;;;;;;;;;10.50;7.50;;;;;12.06;55.67;98076.53;6015546;22;102921;-95
2021/01/08 01:14:46;;;;;;;;;9.75;9.00;;;;;12.03;56.03;98062.56;6031129;22;102971;-95
2021/01/08 01:17:14;;;;;;;;;7.75;7.75;;;;;12.09;55.78;98094.22;5993761;22;102735;-95
2021/01/08 01:19:43;;;;;;;;;7.00;6.50;;;;;12.04;55.74;98069.66;5993683;22;102639;-95
2021/01/08 01:22:16;;;;;;;;;9.00;8.00;;;;;12.03;56.22;98068.81;6018525;22;102601;-95
2021/01/08 01:24:45;;;;;;;;;7.00;6.25;;;;;12.06;55.72;98084.66;6013380;22;102804;-96
2021/01/08 01:27:13;;;;;;;;;7.75;6.75;;;;;11.99;56.46;98080.31;6042761;22;102767;-95
2021/01/08 01:29:42;;;;;;;;;6.25;6.25;;;;;12.04;55.60;98080.50;6039335;22;102802;-96
2021/01/08 01:32:11;;;;;;;;;4.00;4.00;;;;;12.04;56.32;98091.34;6041083;22;102574;-95
2021/01/08 01:34:41;;;;;;;;;12.50;8.00;;;;;12.04;56.32;98088.63;6039212;22;102982;-95
2021/01/08 01:37:09;;;;;;;;;8.00;7.25;;;;;11.99;56.32;98089.28;6044808;22;102468;-95
2021/01/08 01:39:38;;;;;;;;;7.25;7.00;;;;;11.96;56.02;98083.50;6010925;22;102577;-95
2021/01/08 01:42:05;;;;;;;;;9.00;6.75;;;;;12.00;56.52;98100.97;6010179;22;102848;-95
2021/01/08 01:44:31;;;;;;;;;8.00;6.50;;;;;11.93;55.89;98092.06;6015279;22;104303;-95
2021/01/08 01:46:58;;;;;;;;;5.75;5.75;;;;;11.97;56.03;98098.69;6017102;22;102617;-94
2021/01/08 01:49:25;;;;;;;;;9.75;8.50;;;;;11.94;55.99;98086.41;6110840;22;102632;-95
2021/01/08 01:51:52;;;;;;;;;8.25;7.50;;;;;11.96;56.18;98088.91;6018863;22;107948;-95
2021/01/08 01:54:18;;;;;;;;;6.25;5.50;;;;;11.92;55.77;98085.00;6022604;22;108400;-95
2021/01/08 01:56:45;;;;;;;;;7.00;5.75;;;;;11.96;55.77;98088.91;5991750;23;103108;-95
2021/01/08 01:59:12;;;;;;;;;8.50;6.25;;;;;11.90;55.74;98089.78;6017779;22;102636;-95
2021/01/08 02:01:38;;;;;;;;;7.75;7.00;;;;;11.94;55.64;98091.00;6002650;22;102906;-95
2021/01/08 02:04:05;;;;;;;;;7.75;7.00;;;;;11.88;56.21;98079.19;5978287;22;103971;-95
2021/01/08 02:06:34;;;;;;;;;8.00;7.25;;;;;11.91;56.20;98086.03;5996250;22;105688;-95
2021/01/08 02:09:06;;;;;;;;;8.50;6.75;;;;;11.88;56.22;98070.22;6109574;22;102571;-95
2021/01/08 02:11:33;;;;;;;;;7.00;6.00;;;;;11.89;56.14;98083.53;5993505;22;107800;-95
2021/01/08 02:14:12;;;;;;;;;8.00;7.00;;;;;11.89;56.26;98078.13;6013795;22;102998;-95
2021/01/08 02:16:41;;;;;;;;;9.75;8.00;;;;;11.85;55.80;98065.25;5988450;22;102560;-96
2021/01/08 02:19:22;;;;;;;;;13.00;6.00;;;;;11.89;56.25;98069.16;6117301;22;103735;-95
2021/01/08 02:22:06;;;;;;;;;6.00;6.00;;;;;11.84;55.94;98063.59;6084211;22;102539;-95
2021/01/08 02:24:57;;;;;;;;;8.00;7.00;;;;;11.84;55.64;98069.81;5848746;23;107243;-95
2021/01/08 02:27:26;;;;;;;;;7.00;6.50;;;;;11.88;55.75;98070.22;6004066;22;102713;-95
2021/01/08 02:29:54;;;;;;;;;9.00;6.25;;;;;11.83;55.81;98054.66;6004926;22;102627;-95
2021/01/08 02:32:27;;;;;;;;;8.00;7.00;;;;;11.87;55.98;98063.16;6003192;22;102821;-95
2021/01/08 02:34:55;;;;;;;;;6.50;6.25;;;;;11.85;55.67;98054.41;6006753;22;103183;-95
2021/01/08 02:37:25;;;;;;;;;8.75;7.25;;;;;11.81;55.85;98053.19;6009388;22;102575;-95
2021/01/08 02:39:55;;;;;;;;;6.75;6.00;;;;;11.85;55.73;98059.81;6029946;22;102814;-95
2021/01/08 02:42:24;;;;;;;;;7.50;6.75;;;;;11.78;55.65;98046.34;5939595;22;102523;-95
2021/01/08 02:44:53;;;;;;;;;8.00;8.00;;;;;11.77;56.00;98046.56;6007570;22;107443;-95
2021/01/08 02:47:21;;;;;;;;;10.00;8.00;;;;;11.80;56.10;98052.38;6010312;22;102587;-96
2021/01/08 02:49:48;;;;;;;;;14.25;8.25;;;;;11.76;56.08;98047.59;6015060;22;102472;-95
2021/01/08 02:52:15;;;;;;;;;6.00;6.00;;;;;11.78;56.12;98053.66;6013947;22;102852;-95
2021/01/08 02:54:41;;;;;;;;;5.25;4.50;;;;;11.78;55.61;98054.47;6102342;22;103959;-95
2021/01/08 02:57:09;;;;;;;;;8.75;8.00;;;;;11.81;55.49;98055.91;6004716;22;102845;-95
2021/01/08 02:59:39;;;;;;;;;6.25;6.00;;;;;11.77;55.47;98060.09;6011952;22;102514;-95
2021/01/08 03:02:05;;;;;;;;;9.00;7.50;;;;;11.76;55.62;98044.91;6015922;22;102892;-95
2021/01/08 03:04:32;;;;;;;;;7.75;6.00;;;;;11.78;56.18;98053.66;6004147;22;104125;-96
2021/01/08 03:06:59;;;;;;;;;6.75;6.00;;;;;11.71;55.64;98047.44;6010692;22;102872;-96
2021/01/08 03:09:26;;;;;;;;;5.75;5.50;;;;;11.74;56.10;98052.44;6012694;22;102519;-96
2021/01/08 03:11:57;;;;;;;;;6.75;6.75;;;;;11.71;55.94;98042.81;5994930;23;102547;-95
2021/01/08 03:14:23;;;;;;;;;7.75;7.50;;;;;11.71;55.66;98052.84;6016606;22;108574;-96
2021/01/08 03:16:50;;;;;;;;;6.75;6.00;;;;;11.72;55.77;98051.78;6017316;22;102635;-95
2021/01/08 03:19:18;;;;;;;;;5.25;5.00;;;;;11.74;55.87;98057.84;6017803;22;102639;-95
2021/01/08 03:21:44;;;;;;;;;9.50;6.25;;;;;11.69;55.50;98044.13;6021004;22;103816;-95
2021/01/08 03:24:11;;;;;;;;;11.25;7.25;;;;;11.71;55.97;98061.78;6015888;22;103966;-95
2021/01/08 03:26:38;;;;;;;;;5.75;5.00;;;;;11.70;55.73;98051.19;6014957;22;102956;-94
2021/01/08 03:29:04;;;;;;;;;6.75;6.50;;;;;11.74;55.58;98060.56;6022107;22;102504;-95
2021/01/08 03:31:31;;;;;;;;;6.25;6.25;;;;;11.70;55.61;98056.59;6020263;22;102547;-95
2021/01/08 03:33:58;;;;;;;;;6.75;6.00;;;;;11.68;55.68;98062.25;6018268;22;104092;-95
2021/01/08 03:36:25;;;;;;;;;6.75;6.00;;;;;11.71;55.19;98069.09;6018450;22;102840;-96
2021/01/08 03:38:51;;;;;;;;;8.00;7.75;;;;;11.71;55.59;98069.09;6025804;22;102774;-95
2021/01/08 03:41:19;;;;;;;;;10.50;7.25;;;;;11.72;55.90;98059.91;6050494;22;102859;-95
2021/01/08 03:43:45;;;;;;;;;7.75;6.00;;;;;11.72;55.43;98062.63;6047005;22;103392;-95
2021/01/08 03:46:12;;;;;;;;;6.50;5.75;;;;;11.68;55.54;98059.53;6022500;22;102651;-95
2021/01/08 03:48:39;;;;;;;;;6.75;6.00;;;;;11.69;56.05;98071.19;6022092;22;104526;-95
2021/01/08 03:51:07;;;;;;;;;6.25;6.00;;;;;11.69;56.04;98054.94;6047585;22;102762;-95
2021/01/08 03:53:34;;;;;;;;;6.00;5.00;;;;;11.63;55.79;98052.06;6020700;22;104319;-95
2021/01/08 03:56:00;;;;;;;;;9.00;7.00;;;;;11.67;55.82;98057.88;5976427;22;102623;-95
2021/01/08 03:58:27;;;;;;;;;8.00;5.00;;;;;11.64;55.86;98053.72;6048901;22;102456;-95
2021/01/08 04:00:54;;;;;;;;;6.00;6.00;;;;;11.64;56.08;98059.16;6020761;22;102616;-95
2021/01/08 04:03:21;;;;;;;;;7.75;6.75;;;;;11.59;55.34;98050.03;6025150;22;108243;-95
2021/01/08 04:05:47;;;;;;;;;8.50;5.75;;;;;11.62;56.18;98066.66;6048406;22;102881;-95
2021/01/08 04:08:14;;;;;;;;;7.00;7.00;;;;;11.64;55.57;98061.03;6024865;22;102690;-95
2021/01/08 04:10:41;;;;;;;;;8.50;6.25;;;;;11.58;55.67;98054.59;5998114;22;102751;-95
2021/01/08 04:13:07;;;;;;;;;8.00;8.00;;;;;11.64;55.47;98056.44;6050553;22;103977;-95
2021/01/08 04:15:34;;;;;;;;;5.75;5.00;;;;;11.71;55.73;98055.56;5985740;22;104909;-95
2021/01/08 04:18:01;;;;;;;;;4.50;4.00;;;;;11.77;55.30;98051.97;6050281;22;102508;-95
2021/01/08 04:20:28;;;;;;;;;4.75;4.50;;;;;11.85;55.43;98059.81;6047558;22;102809;-95
2021/01/08 04:22:54;;;;;;;;;3.00;3.00;;;;;11.93;55.37;98064.97;5998087;22;104279;-95
2021/01/08 04:25:22;;;;;;;;;0.25;0.00;;;;;11.95;55.34;98043.91;6053509;22;102557;-95
2021/01/08 04:27:48;;;;;;;;;4.50;4.00;;;;;11.99;54.66;98059.47;6048248;22;102457;-95
2021/01/08 04:30:16;;;;;;;;;5.50;5.00;;;;;11.99;55.00;98039.69;6052379;22;102797;-95
2021/01/08 04:32:45;;;;;;;;;5.00;5.00;;;;;12.04;54.43;98053.41;6023341;22;103964;-95
2021/01/08 04:35:12;;;;;;;;;5.50;4.00;;;;;12.04;54.93;98047.97;6048680;22;102451;-95
2021/01/08 04:37:39;;;;;;;;;7.00;4.00;;;;;11.99;54.13;98040.50;6048021;22;102609;-95
2021/01/08 04:40:07;;;;;;;;;5.00;4.00;;;;;12.05;54.16;98050.47;6046639;22;102885;-95
2021/01/08 04:42:34;;;;;;;;;5.50;5.00;;;;;12.02;54.39;98053.59;6019427;22;103913;-95
2021/01/08 04:45:05;;;;;;;;;5.00;3.50;;;;;12.01;54.63;98043.84;5972953;22;102610;-95
2021/01/08 04:47:55;;;;;;;;;6.00;4.00;;;;;12.06;54.24;98052.13;6021542;22;102739;-95
2021/01/08 04:50:22;;;;;;;;;5.25;4.00;;;;;12.01;54.50;98048.44;6051702;22;102738;-95
2021/01/08 04:52:49;;;;;;;;;6.00;5.50;;;;;12.00;54.12;98055.72;6021266;22;103920;-95
2021/01/08 04:55:16;;;;;;;;;6.75;6.00;;;;;11.99;54.22;98043.22;6001580;22;102584;-95
2021/01/08 04:57:43;;;;;;;;;4.75;4.00;;;;;11.95;54.62;98043.91;6000703;22;102788;-95
2021/01/08 05:00:10;;;;;;;;;6.75;4.75;;;;;12.02;54.14;98052.81;6025816;22;102939;-95
2021/01/08 05:02:37;;;;;;;;;6.00;5.50;;;;;11.99;54.75;98047.81;6049573;22;104009;-95
2021/01/08 05:05:04;;;;;;;;;6.50;6.00;;;;;11.99;54.39;98039.69;6000750;22;102493;-94
2021/01/08 05:07:31;;;;;;;;;5.75;5.00;;;;;11.91;54.83;98042.69;6021912;22;102532;-95
2021/01/08 05:10:01;;;;;;;;;5.50;5.00;;;;;11.91;54.46;98032.69;6025079;22;103615;-95
2021/01/08 05:12:38;;;;;;;;;6.75;5.00;;;;;11.96;54.91;98040.97;6048937;22;109060;-95
2021/01/08 05:15:15;;;;;;;;;6.00;4.00;;;;;11.95;54.81;98042.03;6030403;22;102439;-94
2021/01/08 05:17:43;;;;;;;;;7.00;4.50;;;;;11.89;54.45;98033.94;6021092;22;102705;-95
2021/01/08 05:20:10;;;;;;;;;6.00;4.75;;;;;11.95;54.42;98049.31;6024676;22;102769;-95
2021/01/08 05:22:38;;;;;;;;;6.25;5.25;;;;;11.90;54.44;98043.72;6045007;22;103887;-95
2021/01/08 05:25:06;;;;;;;;;6.00;5.75;;;;;11.86;54.86;98048.78;5998719;22;102676;-95
2021/01/08 05:27:35;;;;;;;;;5.00;4.00;;;;;11.88;54.62;98032.31;6049178;22;102853;-95
2021/01/08 05:30:12;;;;;;;;;5.50;5.00;;;;;11.87;56.03;98055.03;6026864;22;102694;-95
2021/01/08 05:32:39;;;;;;;;;6.00;5.00;;;;;11.88;55.92;98048.56;5980627;22;104313;-95
2021/01/08 05:35:07;;;;;;;;;4.00;4.00;;;;;11.96;56.14;98056.41;6021696;22;102562;-95
2021/01/08 05:37:34;;;;;;;;;5.00;4.50;;;;;11.94;56.24;98044.94;6048111;22;102802;-95
2021/01/08 05:40:01;;;;;;;;;4.25;4.00;;;;;11.97;56.45;98047.22;6017146;22;102843;-95
2021/01/08 05:42:29;;;;;;;;;7.00;5.75;;;;;11.99;56.61;98056.78;5995751;22;105349;-95
2021/01/08 05:44:56;;;;;;;;;5.00;3.75;;;;;11.99;56.32;98055.94;5974750;23;102684;-95
2021/01/08 05:47:22;;;;;;;;;3.50;3.00;;;;;12.00;56.49;98044.06;6018257;22;102586;-95
2021/01/08 05:49:49;;;;;;;;;5.50;5.00;;;;;11.98;56.89;98048.84;6121273;22;102899;-95
2021/01/08 05:52:16;;;;;;;;;5.00;4.50;;;;;11.94;56.91;98044.94;5993585;22;103987;-95
2021/01/08 05:54:43;;;;;;;;;5.50;5.00;;;;;11.98;56.84;98054.28;6019921;22;102753;-95
2021/01/08 05:57:10;;;;;;;;;5.00;4.00;;;;;12.00;56.69;98053.03;6018569;22;102611;-94
2021/01/08 05:59:37;;;;;;;;;4.00;4.00;;;;;12.00;57.44;98047.59;5969933;23;102727;-95
2021/01/08 06:02:05;;;;;;;;;3.75;3.50;;;;;11.97;57.14;98044.50;6091913;22;105813;-95
2021/01/08 06:04:35;;;;;;;;;4.50;4.00;;;;;11.95;57.37;98041.19;6018073;22;102777;-95
2021/01/08 06:07:15;;;;;;;;;6.00;5.75;;;;;11.97;57.39;98041.81;6017417;22;102668;-95
2021/01/08 06:09:43;;;;;;;;;4.00;3.00;;;;;11.98;57.37;98046.97;5999195;22;102884;-95
2021/01/08 06:12:10;;;;;;;;;5.25;4.50;;;;;11.97;57.83;98049.94;6021158;22;104250;-94
2021/01/08 06:14:37;;;;;;;;;6.00;5.00;;;;;12.01;57.80;98048.44;6121193;22;102574;-95
2021/01/08 06:17:04;;;;;;;;;5.00;4.00;;;;;11.96;57.64;98045.56;6019746;22;102829;-94
2021/01/08 06:19:31;;;;;;;;;3.75;3.00;;;;;12.03;57.58;98051.72;6024670;22;102653;-95
2021/01/08 06:21:58;;;;;;;;;4.00;4.00;;;;;12.01;57.67;98049.25;6022401;22;103983;-95
2021/01/08 06:24:25;;;;;;;;;6.00;5.00;;;;;11.97;57.57;98044.50;6017031;22;102512;-95
2021/01/08 06:26:52;;;;;;;;;5.00;5.00;;;;;12.00;57.16;98052.19;6019614;22;102315;-95
2021/01/08 06:29:23;;;;;;;;;4.00;2.25;;;;;12.02;57.29;98047.38;6021632;22;102780;-95
2021/01/08 06:31:53;;;;;;;;;4.00;3.25;;;;;12.02;57.85;98048.19;6021363;22;104239;-95
2021/01/08 06:34:25;;;;;;;;;6.00;5.00;;;;;12.07;57.53;98052.94;6018409;22;102817;-94
2021/01/08 06:37:08;;;;;;;;;4.75;4.00;;;;;12.00;57.75;98047.59;5973099;22;102773;-94
2021/01/08 06:39:45;;;;;;;;;4.50;4.50;;;;;12.06;58.09;98062.13;5940829;22;102710;-95
2021/01/08 06:42:29;;;;;;;;;3.75;1.00;;;;;12.06;57.42;98060.25;6016505;22;103874;-96
2021/01/08 06:45:00;;;;;;;;;5.00;4.75;;;;;12.02;57.05;98052.81;6020044;22;102748;-95
2021/01/08 06:47:29;;;;;;;;;5.00;4.25;;;;;12.02;57.09;98060.94;6044824;22;102596;-96
2021/01/08 06:49:57;;;;;;;;;5.00;5.00;;;;;12.01;57.29;98056.56;6026811;22;102439;-95
2021/01/08 06:52:24;;;;;;;;;6.00;5.00;;;;;12.07;57.40;98069.19;6022027;22;108414;-94
2021/01/08 06:54:54;;;;;;;;;5.25;3.75;;;;;12.02;57.89;98056.31;6021047;22;102521;-95
2021/01/08 06:57:21;;;;;;;;;4.00;4.00;;;;;11.99;57.50;98056.78;6021488;22;102467;-95
2021/01/08 07:00:06;;;;;;;;;5.25;3.75;;;;;12.04;57.12;98064.22;6023199;22;102865;-95
2021/01/08 07:02:33;;;;;;;;;4.00;4.00;;;;;12.06;57.37;98067.56;6014928;22;108755;-95
2021/01/08 07:05:00;;;;;;;;;5.25;4.00;;;;;12.06;57.87;98064.84;5995809;23;102882;-95
2021/01/08 07:07:29;;;;;;;;;6.75;5.00;;;;;12.05;57.75;98071.31;5995305;22;102811;-95
2021/01/08 07:09:55;;;;;;;;;4.25;4.25;;;;;12.08;58.15;98068.16;6016055;22;102560;-96
2021/01/08 07:12:25;;;;;;;;;6.00;5.00;;;;;12.05;57.59;98065.91;5989967;22;103984;-95
2021/01/08 07:14:52;;;;;;;;;6.50;3.25;;;;;12.05;57.41;98063.19;5982864;22;102760;-95
2021/01/08 07:17:28;;;;;;;;;7.25;5.00;;;;;12.08;57.97;98079.81;6005626;22;102838;-95
2021/01/08 07:19:55;;;;;;;;;5.00;3.00;;;;;12.10;57.36;98076.91;5992364;22;102931;-95
2021/01/08 07:22:22;;;;;;;;;7.00;5.00;;;;;12.06;57.11;98079.22;6014073;22;104064;-95
2021/01/08 07:24:49;;;;;;;;;5.00;4.75;;;;;12.08;56.79;98087.13;6112516;22;102697;-95
2021/01/08 07:27:31;;;;;;;;;5.00;5.00;;;;;12.05;57.69;98084.88;5986451;22;102805;-95
2021/01/08 07:30:04;;;;;;;;;5.25;5.00;;;;;12.03;57.44;98087.78;5986118;23;102697;-95
2021/01/08 07:32:41;;;;;;;;;6.00;5.25;;;;;12.01;56.66;98098.03;5995427;22;108646;-95
2021/01/08 07:35:25;;;;;;;;;6.00;5.25;;;;;11.98;57.05;98094.91;6010810;22;102765;-95
2021/01/08 07:38:06;;;;;;;;;6.00;5.50;;;;;11.94;56.55;98096.41;6013354;22;102639;-95
2021/01/08 07:40:35;;;;;;;;;5.00;4.75;;;;;11.90;56.60;98089.78;6011215;22;103036;-95
2021/01/08 07:43:07;;;;;;;;;5.00;4.00;;;;;11.96;57.42;98107.88;6113579;22;103445;-95
2021/01/08 07:45:53;;;;;;;;;4.50;4.50;;;;;11.96;56.61;98099.75;6013727;22;102854;-96
2021/01/08 07:48:40;;;;;;;;;4.75;4.50;;;;;11.91;57.22;98108.53;6014187;22;102579;-95
2021/01/08 07:51:08;;;;;;;;;5.00;4.00;;;;;11.89;56.78;98096.25;5927850;22;102783;-96
2021/01/08 07:53:40;;;;;;;;;7.00;6.00;;;;;11.93;56.66;98111.03;6090166;22;103225;-95
2021/01/08 07:56:20;;;;;;;;;8.00;6.00;;;;;11.89;56.06;98107.91;6018726;22;102398;-96
2021/01/08 07:59:07;;;;;;;;;5.25;5.00;;;;;11.87;56.29;98115.47;5967623;22;102955;-95
2021/01/08 08:01:35;;;;;;;;;5.75;5.75;;;;;11.84;56.81;98109.66;5915251;22;102689;-95
2021/01/08 08:04:02;;;;;;;;;6.00;5.00;;;;;11.88;56.57;98119.84;6011291;22;104005;-95
2021/01/08 08:07:00;;;;;;;;;7.00;5.25;;;;;11.87;56.81;98114.63;6015397;22;102732;-95
2021/01/08 08:09:27;;;;;;;;;5.75;5.50;;;;;11.85;56.17;98109.41;5941112;22;102608;-96
2021/01/08 08:11:53;;;;;;;;;6.00;5.00;;;;;11.81;55.95;98110.06;6017395;22;102820;-95
2021/01/08 08:14:21;;;;;;;;;7.75;6.00;;;;;11.84;56.16;98112.38;6018190;22;104019;-96
2021/01/08 08:16:48;;;;;;;;;7.25;5.00;;;;;11.83;56.50;98108.00;6116405;22;102573;-95
2021/01/08 08:19:15;;;;;;;;;4.50;4.25;;;;;11.82;56.24;98118.00;6118421;22;102970;-95
2021/01/08 08:21:50;;;;;;;;;6.00;5.00;;;;;11.82;56.13;98114.44;6117344;22;103010;-95
2021/01/08 08:24:17;;;;;;;;;7.00;6.50;;;;;11.85;56.01;98124.84;5986558;22;104051;-95
2021/01/08 08:26:49;;;;;;;;;6.00;5.00;;;;;11.82;55.63;98125.28;5994108;22;102606;-95
2021/01/08 08:29:16;;;;;;;;;7.00;6.00;;;;;11.79;55.91;98120.31;6115396;22;102835;-95
2021/01/08 08:31:47;;;;;;;;;7.00;6.00;;;;;11.83;55.77;98126.94;6010041;22;102741;-96
2021/01/08 08:34:15;;;;;;;;;9.50;6.00;;;;;11.80;56.27;98133.63;6015936;22;103931;-95
2021/01/08 08:36:42;;;;;;;;;5.00;4.75;;;;;11.78;55.82;98119.50;6120365;22;102857;-95
2021/01/08 08:39:13;;;;;;;;;6.00;5.25;;;;;11.80;55.80;98119.25;6015498;22;102793;-95
2021/01/08 08:41:44;;;;;;;;;6.25;4.75;;;;;11.76;55.75;98116.16;6119799;22;102874;-95
2021/01/08 08:44:12;;;;;;;;;5.00;4.50;;;;;11.81;55.71;98126.31;6017045;22;104012;-95
2021/01/08 08:46:51;;;;;;;;;7.50;5.75;;;;;11.82;55.84;98125.28;6020152;22;102624;-96
2021/01/08 08:49:24;;;;;;;;;5.00;5.00;;;;;11.79;55.95;98126.56;5991263;22;102835;-95
2021/01/08 08:51:52;;;;;;;;;7.00;5.25;;;;;11.82;55.59;98136.13;5973425;22;102757;-95
2021/01/08 08:54:19;;;;;;;;;5.25;5.25;;;;;11.79;55.10;98131.16;5990653;22;103909;-96
2021/01/08 08:56:56;;;;;;;;;6.25;5.00;;;;;11.78;55.49;98124.06;6018288;22;102482;-96
2021/01/08 08:59:38;;;;;;;;;6.75;5.00;;;;;11.80;56.04;98132.78;6015554;22;102568;-95
2021/01/08 09:02:08;;;;;;;;;6.00;5.25;;;;;11.79;55.34;98129.28;5923135;22;102810;-96
2021/01/08 09:04:36;;;;;;;;;7.25;5.75;;;;;11.81;55.62;98135.28;6022390;22;104124;-95
2021/01/08 09:07:10;;;;;;;;;6.00;5.00;;;;;11.80;55.54;98128.19;6022082;22;102348;-95
2021/01/08 09:09:38;;;;;;;;;8.00;6.00;;;;;11.81;55.36;98124.44;5973695;22;102833;-95
2021/01/08 09:12:30;;;;;;;;;7.00;7.00;;;;;11.80;55.28;98127.38;6023044;22;102503;-95
2021/01/08 09:15:01;;;;;;;;;7.75;5.75;;;;;11.79;55.08;98126.56;6021217;22;109879;-96
2021/01/08 09:17:32;;;;;;;;;6.00;5.00;;;;;11.81;55.08;98123.63;5996515;22;102696;-96
2021/01/08 09:19:59;;;;;;;;;3.25;2.75;;;;;11.76;55.07;98120.75;6011945;22;102447;-96
2021/01/08 09:22:30;;;;;;;;;7.50;5.00;;;;;11.77;55.59;98130.53;6120005;22;102821;-96
2021/01/08 09:24:58;;;;;;;;;6.25;5.00;;;;;11.76;55.13;98131.56;6004062;22;104142;-96
2021/01/08 09:27:24;;;;;;;;;6.00;5.00;;;;;11.72;55.19;98138.44;5990223;22;102767;-95
2021/01/08 09:29:51;;;;;;;;;6.75;6.00;;;;;11.71;55.13;98129.50;6016609;22;102611;-95
2021/01/08 09:32:31;;;;;;;;;7.50;6.00;;;;;11.72;55.19;98136.59;6110318;22;102615;-95
2021/01/08 09:35:04;;;;;;;;;7.00;6.50;;;;;11.74;55.20;98128.28;6012742;22;109302;-95
2021/01/08 09:37:50;;;;;;;;;4.75;4.00;;;;;11.77;54.99;98135.94;5938447;22;102531;-95
2021/01/08 09:40:18;;;;;;;;;4.50;4.25;;;;;11.78;55.29;98134.91;5983255;22;102950;-95
2021/01/08 09:42:45;;;;;;;;;6.25;5.75;;;;;11.77;54.59;98134.06;6119242;22;102555;-95
2021/01/08 09:45:16;;;;;;;;;6.25;5.25;;;;;11.78;54.89;98140.31;5989762;22;103901;-95
2021/01/08 09:47:43;;;;;;;;;5.00;5.00;;;;;11.78;54.80;98143.03;6015119;22;102452;-95
2021/01/08 09:50:10;;;;;;;;;6.00;5.00;;;;;11.76;54.52;98126.16;6011928;22;102786;-96
2021/01/08 09:52:46;;;;;;;;;5.75;4.00;;;;;11.80;55.00;98122.78;6018759;22;102776;-96
2021/01/08 09:55:30;;;;;;;;;5.50;4.00;;;;;11.81;54.75;98119.03;5990557;22;103784;-96
2021/01/08 09:58:02;;;;;;;;;7.00;4.75;;;;;11.78;54.49;98118.66;6013679;22;102640;-96
2021/01/08 10:00:36;;;;;;;;;6.75;5.25;;;;;11.78;54.10;98113.25;5988911;22;102802;-96
2021/01/08 10:03:04;;;;;;;;;5.75;5.00;;;;;11.78;54.60;98113.25;5974074;22;102802;-96
2021/01/08 10:05:35;;;;;;;;;6.00;4.00;;;;;11.77;54.33;98117.00;6015594;22;104335;-95
2021/01/08 10:08:03;;;;;;;;;4.50;4.00;;;;;11.82;54.40;98114.44;5988531;22;102796;-96
2021/01/08 10:10:37;;;;;;;;;4.25;4.25;;;;;11.83;54.40;98116.13;5988513;22;102718;-96
2021/01/08 10:13:08;;;;;;;;;5.50;4.25;;;;;11.78;54.71;98102.41;5944195;22;102918;-96
2021/01/08 10:15:39;;;;;;;;;4.50;4.00;;;;;11.76;54.58;98093.66;6006268;22;103815;-96
2021/01/08 10:18:09;;;;;;;;;5.00;4.75;;;;;11.83;54.24;98111.53;6016245;22;103197;-96
2021/01/08 10:20:44;;;;;;;;;6.00;5.00;;;;;11.81;54.78;98113.63;6017941;22;102835;-96
2021/01/08 10:23:12;;;;;;;;;5.75;5.00;;;;;11.86;54.37;98110.25;5970473;22;102733;-96
2021/01/08 10:25:48;;;;;;;;;6.25;5.00;;;;;11.82;54.16;98099.03;5989089;22;104550;-96
2021/01/08 10:28:24;;;;;;;;;5.50;4.50;;;;;11.86;54.89;98111.09;6001822;22;102806;-96
2021/01/08 10:30:54;;;;;;;;;4.75;4.75;;;;;11.85;54.07;98100.44;5979695;22;102660;-95
2021/01/08 10:33:33;;;;;;;;;5.25;4.50;;;;;11.88;54.38;98109.00;6009316;22;104034;-96
2021/01/08 10:36:00;;;;;;;;;5.00;5.00;;;;;11.93;54.08;98113.75;6003571;22;108617;-96
2021/01/08 10:38:27;;;;;;;;;6.00;5.00;;;;;11.93;54.03;98106.41;6020506;22;102693;-96
2021/01/08 10:40:54;;;;;;;;;4.50;4.00;;;;;11.93;53.71;98101.00;6046630;22;102560;-95
2021/01/08 10:43:21;;;;;;;;;6.75;5.00;;;;;11.90;53.95;98106.03;6007092;22;102951;-96
2021/01/08 10:45:47;;;;;;;;;7.00;6.00;;;;;11.93;54.64;98092.06;6022810;22;104217;-96
2021/01/08 10:48:14;;;;;;;;;5.25;4.00;;;;;11.90;53.73;98084.38;6015287;22;102782;-96
2021/01/08 10:50:42;;;;;;;;;5.50;4.75;;;;;11.91;53.75;98094.16;6021730;22;102591;-96
2021/01/08 10:53:08;;;;;;;;;4.00;4.00;;;;;11.93;54.13;98092.06;6020993;22;102834;-96
2021/01/08 10:55:35;;;;;;;;;5.00;5.00;;;;;11.95;53.64;98096.22;6044164;22;105123;-96
2021/01/08 10:58:02;;;;;;;;;7.50;5.00;;;;;11.91;53.61;98091.44;6040330;22;102599;-96
2021/01/08 11:00:28;;;;;;;;;3.50;3.50;;;;;11.94;53.64;98094.53;6031149;22;102577;-96
2021/01/08 11:02:55;;;;;;;;;4.50;4.50;;;;;11.96;53.84;98100.56;5969282;22;102797;-96
2021/01/08 11:05:22;;;;;;;;;5.75;4.25;;;;;11.97;53.35;98096.00;6017416;22;104652;-96
2021/01/08 11:07:49;;;;;;;;;4.50;4.00;;;;;11.91;53.96;98080.63;6040346;22;102605;-96
2021/01/08 11:10:16;;;;;;;;;5.50;3.00;;;;;11.93;53.50;98086.66;6018406;22;103581;-96
2021/01/08 11:12:43;;;;;;;;;6.00;5.00;;;;;11.96;53.76;98092.44;5966942;22;102862;-96
2021/01/08 11:15:10;;;;;;;;;6.00;5.00;;;;;11.90;53.68;98082.50;6045578;22;103778;-96
2021/01/08 11:17:37;;;;;;;;;4.50;4.00;;;;;11.93;53.85;98089.38;6047257;22;102553;-95
2021/01/08 11:20:05;;;;;;;;;4.75;4.25;;;;;11.94;53.51;98086.41;5992420;22;102663;-96
2021/01/08 11:22:32;;;;;;;;;5.75;5.50;;;;;11.98;53.86;98081.38;5996001;22;103278;-96
2021/01/08 11:24:59;;;;;;;;;5.00;4.25;;;;;11.96;53.86;98083.50;6023863;22;104006;-96
2021/01/08 11:27:26;;;;;;;;;5.25;5.00;;;;;11.94;53.34;98074.75;6017833;22;103121;-96
2021/01/08 11:29:52;;;;;;;;;5.50;5.50;;;;;11.95;53.71;98076.41;6014993;22;102773;-96
2021/01/08 11:32:19;;;;;;;;;5.75;4.75;;;;;11.96;53.43;98073.50;6023149;22;102817;-96
2021/01/08 11:34:46;;;;;;;;;5.00;4.75;;;;;11.98;53.86;98078.66;6018509;22;104276;-96